Williams, OR (97544)

1:06 PM PDT on June 02, 2015 (GMT -0700)
Bonlinda Lane | | Change Station
CLOSE
Current Station
Personal Weather Station
Location: Williams, OR
Elevation: 1542 ft
Nearby Weather Stations

Elev 1542 ft 42.20 °N, 123.30 °W | Updated 8 minutes ago

Partly Cloudy
Partly Cloudy
68.6 °F
Feels Like 68.6 °F
N
0.0
Wind Variable Wind from SW
Gusts 3.0 mph

Today
High -- | Low -- °F
--% Chance of Precip.
Yesterday
High -- | Low -- °F
Precip. -- in
5:38 AM 8:43 PM
Full, 100% visible
Pressure 30.04 in
Visibility 10.0 miles
Clouds Mostly Cloudy 5500 ft
Dew Point 51 °F
Humidity 53%
Rainfall 0.00 in
Snow Depth Not available.
UV 6 out of 12
Pollen 4.30 out of 12
Air Quality Not available.
Flu Activity Sporadic
METAR KMFR 021953Z 31007G17KT 10SM BKN055 21/07 A3006 RMK AO2 SLP173 T02060067

More Conditions Fewer Conditions

Pressure 30.04 in
Visibility 10.0 miles
Clouds Mostly Cloudy 5500 ft
Dew Point 51 °F
Humidity 53%
Rainfall 0.00 in
Snow Depth Not available.
UV 6 out of 12
Pollen 4.30 out of 12
Air Quality Not available.
Flu Activity Sporadic
METAR KMFR 021953Z 31007G17KT 10SM BKN055 21/07 A3006 RMK AO2 SLP173 T02060067

More Conditions Fewer Conditions

10-Day Weather Forecast

×

Almanac

Astronomy

Jun. 02, 2015 Rise Set
Actual Time
Civil Twilight
Nautical Twilight
Astronomical Twilight
Moon
Length of Visible Light
Length of Day
Tomorrow will be .
, % of the Moon is Illuminated

Today's Extremes

State Highs State Lows

Community

WunderPhotos

Upload Photos

1,826,017 photos uploaded!

WunderBlogs® & News

Nearby

Air Quality

  Air Quality AQ Index Pollutant
Not available.

Snow Depth

Station Depth Elevation

Earthquake Activity

City Distance Mag. Time & Date
Minimum magnitude displayed is 2.5.

Coastal Water Temperatures

Place Temperature

Stations

Nearby Weather Stations

Station Location Temp. Windchill Dew Point Humidity Wind Precip. Elev Updated Type